LQSA/SJJ METAR and TAF weather

Enter ICAO airport designator
Station Type Date Time Source
LQSA METAR 2018/12/15 04:00 UTC NOAA

LQSA 150400Z 32003KT 1800 SN BR SCT015 BKN026 OVC040 M03/M03 Q1015


Station Type Date Time Source
LQSA Decoded METAR 2018/12/15 04:00 UTC NOAA

Sarajevo, Bosnia and Herzegovina (LQSA) 43-49N 018-20E 510M
Dec 14, 2018 - 11:00 PM EST / 2018.12.15 0400 UTC
Wind: from the NW (320 degrees) at 3 MPH (3 KT):0
Visibility: 1 mile(s):0
Sky conditions: overcast
Weather: snow; mist
Temperature: 26 F (-3 C)
Dew Point: 26 F (-3 C)
Relative Humidity: 100%
Pressure (altimeter): 29.97 in. Hg (1015 hPa)
ob: LQSA 150400Z 32003KT 1800 SN BR SCT015 BKN026 OVC040 M03/M03 Q1015
cycle: 4

Station Type Date Time Source
LQSA TAF 2018/12/14 18:06 UTC NOAA

TAF TAF LQSA 141700Z 1418/1518 30005KT 1200 SN BR BKN004 OVC025 TXM01/1418Z TNM04/1518Z PROB30
TEMPO 1504/1508 0700 +SN
TEMPO 1511/1518 2000 -SN SCT005 BKN012 OVC030


Example: see airport list